Canaan, Connecticut
Current Conditions -  °F | °C
As of 4:54 PM on Thursday 27 Nov 2014 (Local Time) from KPSF Reporting Station
Light Snow Light Snow  
Wind Chill: 20°   Ceiling: 5500
Heat Index: 27°   Visibility: 6mi
Dew Point: 22°   Wind: 6mph
Humidity: 81%   Direction: 320°NW
Pressure: 29.93"   Gusts: NA
Location:  42.03°N, 73.33°W
Report Text: KPSF 272154Z AUTO 32005KT 6SM -SN BKN055 OVC070 M03/M06 A2993 RMK AO2 SNB38 SLP150 P0000 T10281056
Loading
Personal Weather Stations






























Interactive Weather Map New forecast layout! Learn more

10-Day Weather Forecast

Advertisements
Track Severe Weather on mobile